sensor_id;sensor_type;location;lat;lon;timestamp;P1;durP1;ratioP1;P2;durP2;ratioP2
54241;SDS011;40156;51.080;17.082;2023-05-24T00:01:24;11.57;;;7.20;;
54241;SDS011;40156;51.080;17.082;2023-05-24T00:03:52;11.70;;;7.28;;
54241;SDS011;40156;51.080;17.082;2023-05-24T00:06:20;10.27;;;7.20;;
54241;SDS011;40156;51.080;17.082;2023-05-24T00:08:47;9.95;;;6.97;;
54241;SDS011;40156;51.080;17.082;2023-05-24T00:11:15;13.30;;;7.85;;
54241;SDS011;40156;51.080;17.082;2023-05-24T00:13:42;9.05;;;4.97;;
54241;SDS011;40156;51.080;17.082;2023-05-24T00:16:10;14.00;;;4.68;;
54241;SDS011;40156;51.080;17.082;2023-05-24T00:18:37;12.13;;;8.25;;
54241;SDS011;40156;51.080;17.082;2023-05-24T00:21:08;10.73;;;6.97;;
54241;SDS011;40156;51.080;17.082;2023-05-24T00:23:48;8.57;;;6.50;;
54241;SDS011;40156;51.080;17.082;2023-05-24T00:26:16;8.65;;;5.93;;
54241;SDS011;40156;51.080;17.082;2023-05-24T00:28:43;7.80;;;5.40;;
54241;SDS011;40156;51.080;17.082;2023-05-24T00:31:11;6.07;;;3.60;;
54241;SDS011;40156;51.080;17.082;2023-05-24T00:33:55;5.38;;;3.13;;
54241;SDS011;40156;51.080;17.082;2023-05-24T00:36:23;4.88;;;3.20;;
54241;SDS011;40156;51.080;17.082;2023-05-24T00:38:50;3.28;;;1.95;;
54241;SDS011;40156;51.080;17.082;2023-05-24T00:41:18;3.03;;;2.10;;
54241;SDS011;40156;51.080;17.082;2023-05-24T00:43:45;3.67;;;2.42;;
54241;SDS011;40156;51.080;17.082;2023-05-24T00:46:15;2.67;;;1.70;;
54241;SDS011;40156;51.080;17.082;2023-05-24T00:48:42;2.38;;;1.88;;
54241;SDS011;40156;51.080;17.082;2023-05-24T00:51:11;3.00;;;2.08;;
54241;SDS011;40156;51.080;17.082;2023-05-24T00:53:39;2.45;;;1.80;;
54241;SDS011;40156;51.080;17.082;2023-05-24T00:56:07;1.92;;;1.70;;
54241;SDS011;40156;51.080;17.082;2023-05-24T00:58:41;2.00;;;1.67;;
54241;SDS011;40156;51.080;17.082;2023-05-24T01:01:09;7.72;;;1.65;;
54241;SDS011;40156;51.080;17.082;2023-05-24T01:03:38;1.83;;;1.20;;
54241;SDS011;40156;51.080;17.082;2023-05-24T01:06:06;1.45;;;1.10;;
54241;SDS011;40156;51.080;17.082;2023-05-24T01:11:11;0.10;;;0.10;;
54241;SDS011;40156;51.080;17.082;2023-05-24T01:13:48;1.73;;;1.23;;
54241;SDS011;40156;51.080;17.082;2023-05-24T01:18:59;1.67;;;1.30;;
54241;SDS011;40156;51.080;17.082;2023-05-24T01:24:21;2.45;;;1.55;;
54241;SDS011;40156;51.080;17.082;2023-05-24T01:29:19;1.58;;;1.25;;
54241;SDS011;40156;51.080;17.082;2023-05-24T01:31:47;1.55;;;1.10;;
54241;SDS011;40156;51.080;17.082;2023-05-24T01:34:15;2.47;;;1.45;;
54241;SDS011;40156;51.080;17.082;2023-05-24T01:36:42;3.40;;;1.48;;
54241;SDS011;40156;51.080;17.082;2023-05-24T01:39:10;1.95;;;1.23;;
54241;SDS011;40156;51.080;17.082;2023-05-24T01:41:39;3.53;;;1.55;;
54241;SDS011;40156;51.080;17.082;2023-05-24T01:47:03;1.90;;;1.05;;
54241;SDS011;40156;51.080;17.082;2023-05-24T01:49:37;3.05;;;1.58;;
54241;SDS011;40156;51.080;17.082;2023-05-24T01:54:36;3.80;;;1.60;;
54241;SDS011;40156;51.080;17.082;2023-05-24T01:57:06;2.63;;;1.48;;
54241;SDS011;40156;51.080;17.082;2023-05-24T01:59:33;14.18;;;2.10;;
54241;SDS011;40156;51.080;17.082;2023-05-24T02:02:01;1.77;;;1.25;;
54241;SDS011;40156;51.080;17.082;2023-05-24T02:04:29;5.85;;;1.30;;
54241;SDS011;40156;51.080;17.082;2023-05-24T02:06:57;1.95;;;1.73;;
54241;SDS011;40156;51.080;17.082;2023-05-24T02:09:24;4.05;;;2.03;;
54241;SDS011;40156;51.080;17.082;2023-05-24T02:11:52;5.07;;;2.40;;
54241;SDS011;40156;51.080;17.082;2023-05-24T02:14:19;2.45;;;1.80;;
54241;SDS011;40156;51.080;17.082;2023-05-24T02:16:47;5.47;;;1.92;;
54241;SDS011;40156;51.080;17.082;2023-05-24T02:19:15;6.47;;;1.95;;
54241;SDS011;40156;51.080;17.082;2023-05-24T02:21:43;6.05;;;3.08;;
54241;SDS011;40156;51.080;17.082;2023-05-24T02:24:10;12.48;;;2.55;;
54241;SDS011;40156;51.080;17.082;2023-05-24T02:26:38;3.55;;;1.90;;
54241;SDS011;40156;51.080;17.082;2023-05-24T02:29:05;2.50;;;1.90;;
54241;SDS011;40156;51.080;17.082;2023-05-24T02:31:33;12.82;;;2.13;;
54241;SDS011;40156;51.080;17.082;2023-05-24T02:34:00;2.80;;;2.00;;
54241;SDS011;40156;51.080;17.082;2023-05-24T02:36:28;2.92;;;1.80;;
54241;SDS011;40156;51.080;17.082;2023-05-24T02:38:55;3.55;;;1.45;;
54241;SDS011;40156;51.080;17.082;2023-05-24T02:41:23;4.28;;;1.60;;
54241;SDS011;40156;51.080;17.082;2023-05-24T02:43:50;2.22;;;1.50;;
54241;SDS011;40156;51.080;17.082;2023-05-24T02:46:19;6.35;;;1.90;;
54241;SDS011;40156;51.080;17.082;2023-05-24T02:48:47;0.00;;;0.00;;
54241;SDS011;40156;51.080;17.082;2023-05-24T02:51:35;3.55;;;1.98;;
54241;SDS011;40156;51.080;17.082;2023-05-24T02:54:02;2.42;;;1.65;;
54241;SDS011;40156;51.080;17.082;2023-05-24T02:56:30;12.68;;;2.58;;
54241;SDS011;40156;51.080;17.082;2023-05-24T02:58:58;2.42;;;1.50;;
54241;SDS011;40156;51.080;17.082;2023-05-24T03:01:41;2.20;;;1.48;;
54241;SDS011;40156;51.080;17.082;2023-05-24T03:04:12;4.72;;;1.40;;
54241;SDS011;40156;51.080;17.082;2023-05-24T03:06:39;8.40;;;2.05;;
54241;SDS011;40156;51.080;17.082;2023-05-24T03:09:22;5.93;;;1.98;;
54241;SDS011;40156;51.080;17.082;2023-05-24T03:11:50;4.40;;;1.73;;
54241;SDS011;40156;51.080;17.082;2023-05-24T03:14:17;5.55;;;1.65;;
54241;SDS011;40156;51.080;17.082;2023-05-24T03:16:45;17.25;;;2.10;;
54241;SDS011;40156;51.080;17.082;2023-05-24T03:19:12;4.97;;;1.60;;
54241;SDS011;40156;51.080;17.082;2023-05-24T03:21:40;2.90;;;1.73;;
54241;SDS011;40156;51.080;17.082;2023-05-24T03:24:07;6.30;;;2.17;;
54241;SDS011;40156;51.080;17.082;2023-05-24T03:26:35;3.70;;;1.70;;
54241;SDS011;40156;51.080;17.082;2023-05-24T03:29:02;2.97;;;1.80;;
54241;SDS011;40156;51.080;17.082;2023-05-24T03:31:30;4.43;;;1.60;;
54241;SDS011;40156;51.080;17.082;2023-05-24T03:33:57;3.70;;;1.60;;
54241;SDS011;40156;51.080;17.082;2023-05-24T03:36:25;3.50;;;1.98;;
54241;SDS011;40156;51.080;17.082;2023-05-24T03:38:52;4.20;;;1.58;;
54241;SDS011;40156;51.080;17.082;2023-05-24T03:41:27;2.92;;;1.55;;
54241;SDS011;40156;51.080;17.082;2023-05-24T03:43:54;6.90;;;1.73;;
54241;SDS011;40156;51.080;17.082;2023-05-24T03:46:29;2.83;;;1.48;;
54241;SDS011;40156;51.080;17.082;2023-05-24T03:48:56;3.20;;;1.55;;
54241;SDS011;40156;51.080;17.082;2023-05-24T03:51:24;3.42;;;1.30;;
54241;SDS011;40156;51.080;17.082;2023-05-24T03:53:51;4.13;;;1.92;;
54241;SDS011;40156;51.080;17.082;2023-05-24T03:56:19;4.25;;;1.30;;
54241;SDS011;40156;51.080;17.082;2023-05-24T03:58:46;3.30;;;1.45;;
54241;SDS011;40156;51.080;17.082;2023-05-24T04:01:34;3.75;;;1.38;;
54241;SDS011;40156;51.080;17.082;2023-05-24T04:04:02;4.00;;;1.40;;
54241;SDS011;40156;51.080;17.082;2023-05-24T04:06:30;2.05;;;1.10;;
54241;SDS011;40156;51.080;17.082;2023-05-24T04:08:57;2.25;;;1.38;;
54241;SDS011;40156;51.080;17.082;2023-05-24T04:11:25;2.10;;;1.40;;
54241;SDS011;40156;51.080;17.082;2023-05-24T04:13:53;3.25;;;1.55;;
54241;SDS011;40156;51.080;17.082;2023-05-24T04:16:21;3.53;;;1.50;;
54241;SDS011;40156;51.080;17.082;2023-05-24T04:18:51;2.40;;;1.60;;
54241;SDS011;40156;51.080;17.082;2023-05-24T04:21:25;2.83;;;1.52;;
54241;SDS011;40156;51.080;17.082;2023-05-24T04:23:53;5.25;;;1.88;;
54241;SDS011;40156;51.080;17.082;2023-05-24T04:26:20;3.42;;;1.67;;
54241;SDS011;40156;51.080;17.082;2023-05-24T04:28:47;3.80;;;1.67;;
54241;SDS011;40156;51.080;17.082;2023-05-24T04:31:15;3.05;;;1.60;;
54241;SDS011;40156;51.080;17.082;2023-05-24T04:33:43;2.30;;;1.55;;
54241;SDS011;40156;51.080;17.082;2023-05-24T04:36:10;4.82;;;1.48;;
54241;SDS011;40156;51.080;17.082;2023-05-24T04:38:38;3.63;;;1.70;;
54241;SDS011;40156;51.080;17.082;2023-05-24T04:41:06;4.05;;;2.20;;
54241;SDS011;40156;51.080;17.082;2023-05-24T04:43:33;2.10;;;1.88;;
54241;SDS011;40156;51.080;17.082;2023-05-24T04:46:01;4.50;;;2.03;;
54241;SDS011;40156;51.080;17.082;2023-05-24T04:48:28;6.05;;;1.65;;
54241;SDS011;40156;51.080;17.082;2023-05-24T04:50:56;5.03;;;1.90;;
54241;SDS011;40156;51.080;17.082;2023-05-24T04:53:23;1.52;;;1.25;;
54241;SDS011;40156;51.080;17.082;2023-05-24T04:55:51;3.55;;;1.67;;
54241;SDS011;40156;51.080;17.082;2023-05-24T04:58:19;3.08;;;1.98;;
54241;SDS011;40156;51.080;17.082;2023-05-24T05:00:47;7.82;;;2.40;;
54241;SDS011;40156;51.080;17.082;2023-05-24T05:03:14;2.42;;;1.55;;
54241;SDS011;40156;51.080;17.082;2023-05-24T05:05:42;2.63;;;1.80;;
54241;SDS011;40156;51.080;17.082;2023-05-24T05:08:09;3.33;;;1.98;;
54241;SDS011;40156;51.080;17.082;2023-05-24T05:10:37;3.03;;;2.13;;
54241;SDS011;40156;51.080;17.082;2023-05-24T05:13:04;9.05;;;2.30;;
54241;SDS011;40156;51.080;17.082;2023-05-24T05:15:32;3.58;;;2.60;;
54241;SDS011;40156;51.080;17.082;2023-05-24T05:18:00;3.85;;;2.20;;
54241;SDS011;40156;51.080;17.082;2023-05-24T05:20:27;3.03;;;1.90;;
54241;SDS011;40156;51.080;17.082;2023-05-24T05:22:55;5.97;;;2.45;;
54241;SDS011;40156;51.080;17.082;2023-05-24T05:25:22;4.88;;;2.20;;
54241;SDS011;40156;51.080;17.082;2023-05-24T05:27:55;3.10;;;2.20;;
54241;SDS011;40156;51.080;17.082;2023-05-24T05:30:23;4.45;;;2.60;;
54241;SDS011;40156;51.080;17.082;2023-05-24T05:32:50;5.40;;;2.17;;
54241;SDS011;40156;51.080;17.082;2023-05-24T05:35:18;4.97;;;2.60;;
54241;SDS011;40156;51.080;17.082;2023-05-24T05:37:46;7.88;;;2.75;;
54241;SDS011;40156;51.080;17.082;2023-05-24T05:40:13;8.00;;;2.33;;
54241;SDS011;40156;51.080;17.082;2023-05-24T05:42:41;5.97;;;2.28;;
54241;SDS011;40156;51.080;17.082;2023-05-24T05:45:08;7.07;;;2.10;;
54241;SDS011;40156;51.080;17.082;2023-05-24T05:47:36;4.22;;;2.85;;
54241;SDS011;40156;51.080;17.082;2023-05-24T05:50:04;9.32;;;4.15;;
54241;SDS011;40156;51.080;17.082;2023-05-24T05:52:31;6.53;;;4.07;;
54241;SDS011;40156;51.080;17.082;2023-05-24T05:54:59;7.53;;;4.43;;
54241;SDS011;40156;51.080;17.082;2023-05-24T05:57:26;7.88;;;4.40;;
54241;SDS011;40156;51.080;17.082;2023-05-24T05:59:54;6.35;;;3.72;;
54241;SDS011;40156;51.080;17.082;2023-05-24T06:02:23;9.45;;;3.67;;
54241;SDS011;40156;51.080;17.082;2023-05-24T06:04:51;9.88;;;3.78;;
54241;SDS011;40156;51.080;17.082;2023-05-24T06:07:19;6.93;;;3.25;;
54241;SDS011;40156;51.080;17.082;2023-05-24T06:09:56;9.32;;;3.00;;
54241;SDS011;40156;51.080;17.082;2023-05-24T06:12:24;6.05;;;2.40;;
54241;SDS011;40156;51.080;17.082;2023-05-24T06:14:52;6.28;;;2.45;;
54241;SDS011;40156;51.080;17.082;2023-05-24T06:17:19;5.78;;;2.60;;
54241;SDS011;40156;51.080;17.082;2023-05-24T06:19:47;6.97;;;2.60;;
54241;SDS011;40156;51.080;17.082;2023-05-24T06:22:14;7.22;;;2.15;;
54241;SDS011;40156;51.080;17.082;2023-05-24T06:24:42;7.00;;;2.67;;
54241;SDS011;40156;51.080;17.082;2023-05-24T06:27:09;5.35;;;2.50;;
54241;SDS011;40156;51.080;17.082;2023-05-24T06:29:37;12.18;;;2.67;;
54241;SDS011;40156;51.080;17.082;2023-05-24T06:32:04;3.65;;;2.28;;
54241;SDS011;40156;51.080;17.082;2023-05-24T06:34:32;6.22;;;2.30;;
54241;SDS011;40156;51.080;17.082;2023-05-24T06:36:59;9.50;;;2.10;;
54241;SDS011;40156;51.080;17.082;2023-05-24T06:39:27;7.18;;;2.35;;
54241;SDS011;40156;51.080;17.082;2023-05-24T06:41:55;5.40;;;1.92;;
54241;SDS011;40156;51.080;17.082;2023-05-24T06:44:23;6.53;;;2.45;;
54241;SDS011;40156;51.080;17.082;2023-05-24T06:46:51;7.35;;;2.38;;
54241;SDS011;40156;51.080;17.082;2023-05-24T06:49:19;5.63;;;2.20;;
54241;SDS011;40156;51.080;17.082;2023-05-24T06:51:46;9.60;;;2.35;;
54241;SDS011;40156;51.080;17.082;2023-05-24T06:54:16;4.32;;;2.10;;
54241;SDS011;40156;51.080;17.082;2023-05-24T06:56:44;6.88;;;1.90;;
54241;SDS011;40156;51.080;17.082;2023-05-24T06:59:11;6.53;;;2.15;;
54241;SDS011;40156;51.080;17.082;2023-05-24T07:01:39;8.65;;;2.08;;
54241;SDS011;40156;51.080;17.082;2023-05-24T07:04:07;11.52;;;2.03;;
54241;SDS011;40156;51.080;17.082;2023-05-24T07:06:37;7.72;;;2.30;;
54241;SDS011;40156;51.080;17.082;2023-05-24T07:09:04;8.68;;;2.42;;
54241;SDS011;40156;51.080;17.082;2023-05-24T07:11:32;8.77;;;2.40;;
54241;SDS011;40156;51.080;17.082;2023-05-24T07:14:00;3.67;;;1.92;;
54241;SDS011;40156;51.080;17.082;2023-05-24T07:16:27;10.45;;;2.42;;
54241;SDS011;40156;51.080;17.082;2023-05-24T07:18:54;5.60;;;2.20;;
54241;SDS011;40156;51.080;17.082;2023-05-24T07:21:22;7.60;;;2.58;;
54241;SDS011;40156;51.080;17.082;2023-05-24T07:23:50;4.65;;;2.50;;
54241;SDS011;40156;51.080;17.082;2023-05-24T07:26:17;6.75;;;2.22;;
54241;SDS011;40156;51.080;17.082;2023-05-24T07:28:45;10.77;;;2.05;;
54241;SDS011;40156;51.080;17.082;2023-05-24T07:31:12;10.30;;;2.65;;
54241;SDS011;40156;51.080;17.082;2023-05-24T07:33:40;5.28;;;2.13;;
54241;SDS011;40156;51.080;17.082;2023-05-24T07:36:07;8.70;;;2.65;;
54241;SDS011;40156;51.080;17.082;2023-05-24T07:38:35;5.97;;;2.47;;
54241;SDS011;40156;51.080;17.082;2023-05-24T07:41:02;6.53;;;2.85;;
54241;SDS011;40156;51.080;17.082;2023-05-24T07:43:33;6.75;;;2.60;;
54241;SDS011;40156;51.080;17.082;2023-05-24T07:46:00;8.38;;;2.78;;
54241;SDS011;40156;51.080;17.082;2023-05-24T07:48:28;7.85;;;3.03;;
54241;SDS011;40156;51.080;17.082;2023-05-24T07:50:55;7.78;;;2.65;;
54241;SDS011;40156;51.080;17.082;2023-05-24T07:53:23;6.30;;;2.67;;
54241;SDS011;40156;51.080;17.082;2023-05-24T07:55:50;7.05;;;2.90;;
54241;SDS011;40156;51.080;17.082;2023-05-24T07:58:30;7.60;;;2.40;;
54241;SDS011;40156;51.080;17.082;2023-05-24T08:04:15;7.25;;;2.55;;
54241;SDS011;40156;51.080;17.082;2023-05-24T08:06:42;5.95;;;2.85;;
54241;SDS011;40156;51.080;17.082;2023-05-24T08:09:10;4.75;;;2.80;;
54241;SDS011;40156;51.080;17.082;2023-05-24T08:11:37;17.13;;;3.40;;
54241;SDS011;40156;51.080;17.082;2023-05-24T08:14:08;6.03;;;3.25;;
54241;SDS011;40156;51.080;17.082;2023-05-24T08:16:35;10.43;;;2.78;;
54241;SDS011;40156;51.080;17.082;2023-05-24T08:19:10;6.45;;;3.25;;
54241;SDS011;40156;51.080;17.082;2023-05-24T08:21:37;13.82;;;3.67;;
54241;SDS011;40156;51.080;17.082;2023-05-24T08:24:05;7.80;;;3.00;;
54241;SDS011;40156;51.080;17.082;2023-05-24T08:26:35;5.47;;;2.88;;
54241;SDS011;40156;51.080;17.082;2023-05-24T08:29:05;11.68;;;3.38;;
54241;SDS011;40156;51.080;17.082;2023-05-24T08:31:33;14.20;;;4.18;;
54241;SDS011;40156;51.080;17.082;2023-05-24T08:34:04;11.02;;;3.40;;
54241;SDS011;40156;51.080;17.082;2023-05-24T08:36:52;5.57;;;2.70;;
54241;SDS011;40156;51.080;17.082;2023-05-24T08:39:50;9.32;;;2.90;;
54241;SDS011;40156;51.080;17.082;2023-05-24T08:50:09;7.82;;;2.85;;
54241;SDS011;40156;51.080;17.082;2023-05-24T08:52:45;7.40;;;2.83;;
54241;SDS011;40156;51.080;17.082;2023-05-24T08:55:14;9.27;;;3.35;;
54241;SDS011;40156;51.080;17.082;2023-05-24T08:57:44;7.05;;;3.28;;
54241;SDS011;40156;51.080;17.082;2023-05-24T09:00:12;11.20;;;3.03;;
54241;SDS011;40156;51.080;17.082;2023-05-24T09:02:40;10.48;;;2.67;;
54241;SDS011;40156;51.080;17.082;2023-05-24T09:05:09;9.15;;;2.95;;
54241;SDS011;40156;51.080;17.082;2023-05-24T09:07:43;7.25;;;3.00;;
54241;SDS011;40156;51.080;17.082;2023-05-24T09:10:11;6.13;;;2.55;;
54241;SDS011;40156;51.080;17.082;2023-05-24T09:12:43;9.50;;;3.17;;
54241;SDS011;40156;51.080;17.082;2023-05-24T09:15:11;8.65;;;2.80;;
54241;SDS011;40156;51.080;17.082;2023-05-24T09:17:41;4.55;;;2.63;;
54241;SDS011;40156;51.080;17.082;2023-05-24T09:20:12;6.35;;;2.97;;
54241;SDS011;40156;51.080;17.082;2023-05-24T09:22:43;5.78;;;2.45;;
54241;SDS011;40156;51.080;17.082;2023-05-24T09:25:14;8.60;;;2.97;;
54241;SDS011;40156;51.080;17.082;2023-05-24T09:27:42;6.38;;;2.42;;
54241;SDS011;40156;51.080;17.082;2023-05-24T09:30:15;6.65;;;2.63;;
54241;SDS011;40156;51.080;17.082;2023-05-24T09:33:02;5.82;;;3.05;;
54241;SDS011;40156;51.080;17.082;2023-05-24T09:35:29;7.38;;;2.95;;
54241;SDS011;40156;51.080;17.082;2023-05-24T09:41:11;4.40;;;2.90;;
54241;SDS011;40156;51.080;17.082;2023-05-24T09:43:47;6.43;;;3.35;;
54241;SDS011;40156;51.080;17.082;2023-05-24T09:46:17;6.15;;;2.60;;
54241;SDS011;40156;51.080;17.082;2023-05-24T09:51:53;5.25;;;2.60;;
54241;SDS011;40156;51.080;17.082;2023-05-24T09:54:32;5.47;;;2.70;;
54241;SDS011;40156;51.080;17.082;2023-05-24T09:57:00;8.07;;;2.97;;
54241;SDS011;40156;51.080;17.082;2023-05-24T09:59:31;6.60;;;2.85;;
54241;SDS011;40156;51.080;17.082;2023-05-24T10:02:06;5.18;;;2.80;;
54241;SDS011;40156;51.080;17.082;2023-05-24T10:04:40;5.90;;;2.88;;
54241;SDS011;40156;51.080;17.082;2023-05-24T10:07:08;8.32;;;3.10;;
54241;SDS011;40156;51.080;17.082;2023-05-24T10:09:45;6.47;;;3.00;;
54241;SDS011;40156;51.080;17.082;2023-05-24T10:12:14;5.18;;;2.85;;
54241;SDS011;40156;51.080;17.082;2023-05-24T10:14:45;9.85;;;4.10;;
54241;SDS011;40156;51.080;17.082;2023-05-24T10:19:51;5.25;;;3.08;;
54241;SDS011;40156;51.080;17.082;2023-05-24T10:22:21;5.90;;;2.90;;
54241;SDS011;40156;51.080;17.082;2023-05-24T10:24:56;6.63;;;3.38;;
54241;SDS011;40156;51.080;17.082;2023-05-24T10:27:30;6.40;;;3.15;;
54241;SDS011;40156;51.080;17.082;2023-05-24T10:32:50;8.63;;;3.17;;
54241;SDS011;40156;51.080;17.082;2023-05-24T10:35:20;7.40;;;3.53;;
54241;SDS011;40156;51.080;17.082;2023-05-24T10:37:49;6.10;;;3.70;;
54241;SDS011;40156;51.080;17.082;2023-05-24T10:40:20;7.32;;;3.30;;
54241;SDS011;40156;51.080;17.082;2023-05-24T10:42:52;8.10;;;2.95;;
54241;SDS011;40156;51.080;17.082;2023-05-24T10:45:38;9.13;;;3.50;;
54241;SDS011;40156;51.080;17.082;2023-05-24T10:50:42;7.38;;;3.80;;
54241;SDS011;40156;51.080;17.082;2023-05-24T10:53:11;9.20;;;3.05;;
54241;SDS011;40156;51.080;17.082;2023-05-24T10:56:13;10.02;;;4.03;;
54241;SDS011;40156;51.080;17.082;2023-05-24T11:01:00;8.45;;;4.00;;
54241;SDS011;40156;51.080;17.082;2023-05-24T11:03:33;8.20;;;3.75;;
54241;SDS011;40156;51.080;17.082;2023-05-24T11:06:01;9.05;;;4.05;;
54241;SDS011;40156;51.080;17.082;2023-05-24T11:08:33;10.07;;;3.53;;
54241;SDS011;40156;51.080;17.082;2023-05-24T11:11:07;11.43;;;3.78;;
54241;SDS011;40156;51.080;17.082;2023-05-24T11:13:56;9.02;;;3.97;;
54241;SDS011;40156;51.080;17.082;2023-05-24T11:16:37;8.10;;;3.47;;
54241;SDS011;40156;51.080;17.082;2023-05-24T11:21:43;8.98;;;4.10;;
54241;SDS011;40156;51.080;17.082;2023-05-24T11:24:11;7.50;;;3.58;;
54241;SDS011;40156;51.080;17.082;2023-05-24T11:26:39;9.50;;;3.47;;
54241;SDS011;40156;51.080;17.082;2023-05-24T11:29:08;11.18;;;3.47;;
54241;SDS011;40156;51.080;17.082;2023-05-24T11:31:50;4.53;;;2.85;;
54241;SDS011;40156;51.080;17.082;2023-05-24T11:34:28;6.57;;;3.00;;
54241;SDS011;40156;51.080;17.082;2023-05-24T11:36:59;7.05;;;2.78;;
54241;SDS011;40156;51.080;17.082;2023-05-24T11:39:33;8.68;;;3.03;;
54241;SDS011;40156;51.080;17.082;2023-05-24T11:42:04;8.25;;;2.78;;
54241;SDS011;40156;51.080;17.082;2023-05-24T11:44:34;6.90;;;3.33;;
54241;SDS011;40156;51.080;17.082;2023-05-24T11:47:04;11.57;;;3.17;;
54241;SDS011;40156;51.080;17.082;2023-05-24T11:49:32;9.77;;;3.42;;
54241;SDS011;40156;51.080;17.082;2023-05-24T11:52:03;5.53;;;2.85;;
54241;SDS011;40156;51.080;17.082;2023-05-24T11:54:31;7.43;;;3.20;;
54241;SDS011;40156;51.080;17.082;2023-05-24T11:56:59;10.07;;;3.30;;
54241;SDS011;40156;51.080;17.082;2023-05-24T11:59:30;6.38;;;2.72;;
54241;SDS011;40156;51.080;17.082;2023-05-24T12:02:03;8.55;;;3.30;;
54241;SDS011;40156;51.080;17.082;2023-05-24T12:07:02;6.30;;;3.38;;
54241;SDS011;40156;51.080;17.082;2023-05-24T12:09:35;6.57;;;2.80;;
54241;SDS011;40156;51.080;17.082;2023-05-24T12:12:02;5.80;;;3.08;;
54241;SDS011;40156;51.080;17.082;2023-05-24T12:18:02;6.80;;;3.00;;
54241;SDS011;40156;51.080;17.082;2023-05-24T12:20:30;6.97;;;3.00;;
54241;SDS011;40156;51.080;17.082;2023-05-24T12:22:59;9.63;;;3.38;;
54241;SDS011;40156;51.080;17.082;2023-05-24T12:25:26;5.63;;;2.70;;
54241;SDS011;40156;51.080;17.082;2023-05-24T12:27:54;16.73;;;3.45;;
54241;SDS011;40156;51.080;17.082;2023-05-24T12:30:22;5.25;;;3.10;;
54241;SDS011;40156;51.080;17.082;2023-05-24T12:32:53;7.85;;;3.03;;
54241;SDS011;40156;51.080;17.082;2023-05-24T12:35:26;5.40;;;2.92;;
54241;SDS011;40156;51.080;17.082;2023-05-24T12:37:58;7.38;;;3.20;;
54241;SDS011;40156;51.080;17.082;2023-05-24T12:40:36;6.20;;;3.13;;
54241;SDS011;40156;51.080;17.082;2023-05-24T12:43:09;7.07;;;2.65;;
54241;SDS011;40156;51.080;17.082;2023-05-24T12:45:38;9.87;;;2.80;;
54241;SDS011;40156;51.080;17.082;2023-05-24T12:48:05;4.50;;;2.70;;
54241;SDS011;40156;51.080;17.082;2023-05-24T12:50:33;8.38;;;2.60;;
54241;SDS011;40156;51.080;17.082;2023-05-24T12:53:01;5.50;;;2.90;;
54241;SDS011;40156;51.080;17.082;2023-05-24T12:55:28;7.97;;;3.13;;
54241;SDS011;40156;51.080;17.082;2023-05-24T12:57:56;7.82;;;2.97;;
54241;SDS011;40156;51.080;17.082;2023-05-24T13:00:24;8.30;;;3.03;;
54241;SDS011;40156;51.080;17.082;2023-05-24T13:02:52;9.90;;;3.65;;
54241;SDS011;40156;51.080;17.082;2023-05-24T13:05:23;6.28;;;3.10;;
54241;SDS011;40156;51.080;17.082;2023-05-24T13:08:08;9.57;;;3.40;;
54241;SDS011;40156;51.080;17.082;2023-05-24T13:10:36;6.80;;;3.17;;
54241;SDS011;40156;51.080;17.082;2023-05-24T13:13:04;6.95;;;3.38;;
54241;SDS011;40156;51.080;17.082;2023-05-24T13:16:03;9.13;;;3.13;;
54241;SDS011;40156;51.080;17.082;2023-05-24T13:18:34;9.20;;;3.10;;
54241;SDS011;40156;51.080;17.082;2023-05-24T13:25:24;4.15;;;2.60;;
54241;SDS011;40156;51.080;17.082;2023-05-24T13:31:08;9.07;;;2.92;;
54241;SDS011;40156;51.080;17.082;2023-05-24T13:33:36;8.60;;;2.80;;
54241;SDS011;40156;51.080;17.082;2023-05-24T13:36:04;4.68;;;2.63;;
54241;SDS011;40156;51.080;17.082;2023-05-24T13:38:31;4.68;;;2.50;;
54241;SDS011;40156;51.080;17.082;2023-05-24T13:41:02;7.03;;;2.45;;
54241;SDS011;40156;51.080;17.082;2023-05-24T13:43:29;3.50;;;2.13;;
54241;SDS011;40156;51.080;17.082;2023-05-24T13:45:57;6.88;;;2.38;;
54241;SDS011;40156;51.080;17.082;2023-05-24T13:48:30;7.18;;;2.40;;
54241;SDS011;40156;51.080;17.082;2023-05-24T13:50:57;8.50;;;2.47;;
54241;SDS011;40156;51.080;17.082;2023-05-24T13:53:26;4.32;;;2.40;;
54241;SDS011;40156;51.080;17.082;2023-05-24T13:55:53;8.23;;;2.50;;
54241;SDS011;40156;51.080;17.082;2023-05-24T14:01:35;8.57;;;2.70;;
54241;SDS011;40156;51.080;17.082;2023-05-24T14:04:10;6.47;;;2.63;;
54241;SDS011;40156;51.080;17.082;2023-05-24T14:06:40;7.22;;;3.72;;
54241;SDS011;40156;51.080;17.082;2023-05-24T14:09:20;11.55;;;2.60;;
54241;SDS011;40156;51.080;17.082;2023-05-24T14:11:47;5.68;;;2.30;;
54241;SDS011;40156;51.080;17.082;2023-05-24T14:14:15;6.32;;;2.75;;
54241;SDS011;40156;51.080;17.082;2023-05-24T14:16:45;7.85;;;3.03;;
54241;SDS011;40156;51.080;17.082;2023-05-24T14:19:16;9.32;;;3.30;;
54241;SDS011;40156;51.080;17.082;2023-05-24T14:21:43;7.35;;;2.60;;
54241;SDS011;40156;51.080;17.082;2023-05-24T14:24:11;7.97;;;2.70;;
54241;SDS011;40156;51.080;17.082;2023-05-24T14:26:41;4.30;;;2.60;;
54241;SDS011;40156;51.080;17.082;2023-05-24T14:29:12;7.72;;;2.42;;
54241;SDS011;40156;51.080;17.082;2023-05-24T14:31:39;6.60;;;2.95;;
54241;SDS011;40156;51.080;17.082;2023-05-24T14:34:09;4.82;;;2.35;;
54241;SDS011;40156;51.080;17.082;2023-05-24T14:36:37;7.03;;;2.30;;
54241;SDS011;40156;51.080;17.082;2023-05-24T14:39:06;6.82;;;2.28;;
54241;SDS011;40156;51.080;17.082;2023-05-24T14:41:33;9.65;;;3.60;;
54241;SDS011;40156;51.080;17.082;2023-05-24T14:44:01;5.40;;;1.95;;
54241;SDS011;40156;51.080;17.082;2023-05-24T14:46:31;4.57;;;1.95;;
54241;SDS011;40156;51.080;17.082;2023-05-24T14:49:04;7.20;;;3.15;;
54241;SDS011;40156;51.080;17.082;2023-05-24T14:51:33;4.72;;;1.90;;
54241;SDS011;40156;51.080;17.082;2023-05-24T14:54:01;7.30;;;2.30;;
54241;SDS011;40156;51.080;17.082;2023-05-24T15:03:35;4.85;;;2.03;;
54241;SDS011;40156;51.080;17.082;2023-05-24T15:07:33;5.25;;;2.20;;
54241;SDS011;40156;51.080;17.082;2023-05-24T15:10:19;4.05;;;1.88;;
54241;SDS011;40156;51.080;17.082;2023-05-24T15:13:18;8.25;;;2.40;;
54241;SDS011;40156;51.080;17.082;2023-05-24T15:16:07;6.35;;;2.25;;
54241;SDS011;40156;51.080;17.082;2023-05-24T15:18:56;4.03;;;2.00;;
54241;SDS011;40156;51.080;17.082;2023-05-24T15:21:36;3.45;;;2.33;;
54241;SDS011;40156;51.080;17.082;2023-05-24T15:24:07;10.02;;;2.22;;
54241;SDS011;40156;51.080;17.082;2023-05-24T15:26:34;3.25;;;1.92;;
54241;SDS011;40156;51.080;17.082;2023-05-24T15:36:05;5.78;;;2.22;;
54241;SDS011;40156;51.080;17.082;2023-05-24T15:38:39;7.15;;;2.60;;
54241;SDS011;40156;51.080;17.082;2023-05-24T15:44:23;8.43;;;2.50;;
54241;SDS011;40156;51.080;17.082;2023-05-24T15:46:51;8.05;;;2.20;;
54241;SDS011;40156;51.080;17.082;2023-05-24T15:52:02;3.88;;;2.40;;
54241;SDS011;40156;51.080;17.082;2023-05-24T15:54:32;3.58;;;2.17;;
54241;SDS011;40156;51.080;17.082;2023-05-24T16:00:31;6.53;;;2.47;;
54241;SDS011;40156;51.080;17.082;2023-05-24T16:06:21;3.63;;;2.25;;
54241;SDS011;40156;51.080;17.082;2023-05-24T16:08:49;4.47;;;2.88;;
54241;SDS011;40156;51.080;17.082;2023-05-24T16:11:19;6.97;;;2.33;;
54241;SDS011;40156;51.080;17.082;2023-05-24T16:14:03;3.22;;;2.08;;
54241;SDS011;40156;51.080;17.082;2023-05-24T16:16:43;8.50;;;2.38;;
54241;SDS011;40156;51.080;17.082;2023-05-24T16:19:11;5.85;;;2.58;;
54241;SDS011;40156;51.080;17.082;2023-05-24T16:21:50;6.00;;;2.60;;